sensor_id;sensor_type;location;lat;lon;timestamp;pressure;altitude;pressure_sealevel;temperature;humidity
63808;BME280;49961;43.970;22.868;2022-07-29T00:00:11;101479.19;;;22.68;100.00
63808;BME280;49961;43.970;22.868;2022-07-29T00:01:14;101518.44;;;22.86;100.00
63808;BME280;49961;43.970;22.868;2022-07-29T00:02:15;101505.56;;;22.85;100.00
63808;BME280;49961;43.970;22.868;2022-07-29T00:03:16;101512.22;;;22.82;100.00
63808;BME280;49961;43.970;22.868;2022-07-29T00:04:16;101495.91;;;22.71;100.00
63808;BME280;49961;43.970;22.868;2022-07-29T00:05:17;101482.13;;;22.59;100.00
63808;BME280;49961;43.970;22.868;2022-07-29T00:06:17;101522.13;;;22.92;100.00
63808;BME280;49961;43.970;22.868;2022-07-29T00:07:18;101528.53;;;22.92;100.00
63808;BME280;49961;43.970;22.868;2022-07-29T00:08:18;101522.88;;;22.92;100.00
63808;BME280;49961;43.970;22.868;2022-07-29T00:09:19;101517.53;;;22.94;100.00
63808;BME280;49961;43.970;22.868;2022-07-29T00:10:20;101508.00;;;22.92;100.00
63808;BME280;49961;43.970;22.868;2022-07-29T00:11:20;101514.06;;;22.85;100.00
63808;BME280;49961;43.970;22.868;2022-07-29T00:12:23;101511.72;;;22.83;100.00
63808;BME280;49961;43.970;22.868;2022-07-29T00:13:24;101517.31;;;22.78;100.00
63808;BME280;49961;43.970;22.868;2022-07-29T00:14:24;101517.31;;;22.78;100.00
63808;BME280;49961;43.970;22.868;2022-07-29T00:15:25;101433.88;;;22.22;100.00
63808;BME280;49961;43.970;22.868;2022-07-29T00:16:25;101531.44;;;22.78;100.00
63808;BME280;49961;43.970;22.868;2022-07-29T00:17:26;101523.47;;;22.76;100.00
63808;BME280;49961;43.970;22.868;2022-07-29T00:18:26;101474.69;;;22.41;100.00
63808;BME280;49961;43.970;22.868;2022-07-29T00:19:27;101526.50;;;22.73;100.00
63808;BME280;49961;43.970;22.868;2022-07-29T00:20:27;101535.69;;;22.68;100.00
63808;BME280;49961;43.970;22.868;2022-07-29T00:21:28;101541.19;;;22.57;100.00
63808;BME280;49961;43.970;22.868;2022-07-29T00:22:29;101537.22;;;22.49;100.00
63808;BME280;49961;43.970;22.868;2022-07-29T00:23:30;101534.13;;;22.47;100.00
63808;BME280;49961;43.970;22.868;2022-07-29T00:24:30;101492.75;;;22.29;100.00
63808;BME280;49961;43.970;22.868;2022-07-29T00:25:30;101530.88;;;22.54;100.00
63808;BME280;49961;43.970;22.868;2022-07-29T00:26:31;101533.69;;;22.54;100.00
63808;BME280;49961;43.970;22.868;2022-07-29T00:27:32;101539.28;;;22.48;100.00
63808;BME280;49961;43.970;22.868;2022-07-29T00:28:33;101528.75;;;22.49;100.00
63808;BME280;49961;43.970;22.868;2022-07-29T00:29:33;101538.28;;;22.51;100.00
63808;BME280;49961;43.970;22.868;2022-07-29T00:30:34;101531.16;;;22.56;100.00
63808;BME280;49961;43.970;22.868;2022-07-29T00:31:34;101509.47;;;22.47;100.00
63808;BME280;49961;43.970;22.868;2022-07-29T00:32:35;101527.06;;;22.57;100.00
63808;BME280;49961;43.970;22.868;2022-07-29T00:33:35;101461.94;;;22.11;100.00
63808;BME280;49961;43.970;22.868;2022-07-29T00:34:36;101493.13;;;22.37;100.00
63808;BME280;49961;43.970;22.868;2022-07-29T00:35:55;101470.84;;;22.04;100.00
63808;BME280;49961;43.970;22.868;2022-07-29T00:36:56;101528.34;;;22.41;100.00
63808;BME280;49961;43.970;22.868;2022-07-29T00:37:56;101519.38;;;22.43;100.00
63808;BME280;49961;43.970;22.868;2022-07-29T00:38:57;101520.34;;;22.40;100.00
63808;BME280;49961;43.970;22.868;2022-07-29T00:39:57;101507.47;;;22.33;100.00
63808;BME280;49961;43.970;22.868;2022-07-29T00:40:58;101511.25;;;22.30;100.00
63808;BME280;49961;43.970;22.868;2022-07-29T00:41:58;101515.84;;;22.28;100.00
63808;BME280;49961;43.970;22.868;2022-07-29T00:42:59;101473.50;;;21.93;100.00
63808;BME280;49961;43.970;22.868;2022-07-29T00:43:59;101506.94;;;22.35;100.00
63808;BME280;49961;43.970;22.868;2022-07-29T00:44:59;101514.03;;;22.45;100.00
63808;BME280;49961;43.970;22.868;2022-07-29T00:46:00;101512.84;;;22.51;100.00
63808;BME280;49961;43.970;22.868;2022-07-29T00:47:00;101518.59;;;22.57;100.00
63808;BME280;49961;43.970;22.868;2022-07-29T00:48:02;101505.38;;;22.48;100.00
63808;BME280;49961;43.970;22.868;2022-07-29T00:49:04;101518.38;;;22.60;100.00
63808;BME280;49961;43.970;22.868;2022-07-29T00:50:09;101519.94;;;22.61;100.00
63808;BME280;49961;43.970;22.868;2022-07-29T00:51:11;101440.06;;;22.06;100.00
63808;BME280;49961;43.970;22.868;2022-07-29T00:52:11;101492.91;;;22.40;100.00
63808;BME280;49961;43.970;22.868;2022-07-29T00:53:12;101380.13;;;21.77;100.00
63808;BME280;49961;43.970;22.868;2022-07-29T00:54:13;101517.19;;;22.67;100.00
63808;BME280;49961;43.970;22.868;2022-07-29T00:55:14;101516.66;;;22.68;100.00
63808;BME280;49961;43.970;22.868;2022-07-29T00:56:16;101509.19;;;22.65;100.00
63808;BME280;49961;43.970;22.868;2022-07-29T00:57:16;101505.59;;;22.65;100.00
63808;BME280;49961;43.970;22.868;2022-07-29T00:58:17;101513.91;;;22.74;100.00
63808;BME280;49961;43.970;22.868;2022-07-29T00:59:17;101519.84;;;22.76;100.00
63808;BME280;49961;43.970;22.868;2022-07-29T01:00:23;101476.44;;;22.39;100.00
63808;BME280;49961;43.970;22.868;2022-07-29T01:01:24;101510.66;;;22.81;100.00
63808;BME280;49961;43.970;22.868;2022-07-29T01:02:24;101513.00;;;22.82;100.00
63808;BME280;49961;43.970;22.868;2022-07-29T01:03:25;101515.59;;;22.86;100.00
63808;BME280;49961;43.970;22.868;2022-07-29T01:04:26;101457.41;;;22.54;100.00
63808;BME280;49961;43.970;22.868;2022-07-29T01:05:27;101516.53;;;22.77;100.00
63808;BME280;49961;43.970;22.868;2022-07-29T01:06:29;101502.53;;;22.88;100.00
63808;BME280;49961;43.970;22.868;2022-07-29T01:07:30;101500.97;;;22.87;100.00
63808;BME280;49961;43.970;22.868;2022-07-29T01:08:32;101503.03;;;22.87;100.00
63808;BME280;49961;43.970;22.868;2022-07-29T01:09:34;101507.69;;;22.90;100.00
63808;BME280;49961;43.970;22.868;2022-07-29T01:10:36;101407.25;;;22.29;100.00
63808;BME280;49961;43.970;22.868;2022-07-29T01:11:38;101503.09;;;22.92;100.00
63808;BME280;49961;43.970;22.868;2022-07-29T01:12:40;101489.66;;;22.87;100.00
63808;BME280;49961;43.970;22.868;2022-07-29T01:13:41;101494.03;;;22.88;100.00
63808;BME280;49961;43.970;22.868;2022-07-29T01:14:43;101412.19;;;22.34;100.00
63808;BME280;49961;43.970;22.868;2022-07-29T01:15:49;101467.00;;;22.82;100.00
63808;BME280;49961;43.970;22.868;2022-07-29T01:16:56;101488.25;;;22.97;100.00
63808;BME280;49961;43.970;22.868;2022-07-29T01:18:07;101485.16;;;22.95;100.00
63808;BME280;49961;43.970;22.868;2022-07-29T01:21:21;101500.34;;;22.98;100.00
63808;BME280;49961;43.970;22.868;2022-07-29T01:22:44;101489.44;;;22.91;100.00
63808;BME280;49961;43.970;22.868;2022-07-29T01:25:27;101492.44;;;23.02;100.00
63808;BME280;49961;43.970;22.868;2022-07-29T01:30:11;101505.56;;;23.05;100.00
63808;BME280;49961;43.970;22.868;2022-07-29T01:31:16;101467.50;;;22.80;100.00
63808;BME280;49961;43.970;22.868;2022-07-29T01:32:22;101489.53;;;22.96;100.00
63808;BME280;49961;43.970;22.868;2022-07-29T01:33:25;101506.13;;;23.09;100.00
63808;BME280;49961;43.970;22.868;2022-07-29T01:34:52;101406.34;;;22.37;100.00
63808;BME280;49961;43.970;22.868;2022-07-29T01:35:54;101510.72;;;23.06;100.00
63808;BME280;49961;43.970;22.868;2022-07-29T01:38:25;101499.97;;;23.10;100.00
63808;BME280;49961;43.970;22.868;2022-07-29T01:39:32;101500.72;;;23.11;100.00
63808;BME280;49961;43.970;22.868;2022-07-29T01:40:48;101510.44;;;23.04;100.00
63808;BME280;49961;43.970;22.868;2022-07-29T01:42:41;101498.13;;;23.07;100.00
63808;BME280;49961;43.970;22.868;2022-07-29T01:43:20;101470.03;;;22.78;100.00
63808;BME280;49961;43.970;22.868;2022-07-29T01:44:32;101499.66;;;23.08;100.00
63808;BME280;49961;43.970;22.868;2022-07-29T01:45:41;101500.47;;;23.09;100.00
63808;BME280;49961;43.970;22.868;2022-07-29T01:46:49;101486.44;;;22.94;100.00
63808;BME280;49961;43.970;22.868;2022-07-29T01:48:02;101501.97;;;23.04;100.00
63808;BME280;49961;43.970;22.868;2022-07-29T01:49:25;101507.31;;;23.02;100.00
63808;BME280;49961;43.970;22.868;2022-07-29T01:50:33;101519.06;;;22.95;100.00
63808;BME280;49961;43.970;22.868;2022-07-29T01:51:58;101496.72;;;22.97;100.00
63808;BME280;49961;43.970;22.868;2022-07-29T01:53:03;101500.91;;;23.02;100.00
63808;BME280;49961;43.970;22.868;2022-07-29T01:54:16;101506.03;;;23.03;100.00
63808;BME280;49961;43.970;22.868;2022-07-29T01:55:20;101489.31;;;23.00;100.00
63808;BME280;49961;43.970;22.868;2022-07-29T01:56:23;101419.38;;;22.49;100.00
63808;BME280;49961;43.970;22.868;2022-07-29T01:57:29;101496.34;;;23.10;100.00
63808;BME280;49961;43.970;22.868;2022-07-29T01:58:32;101495.88;;;23.11;100.00
63808;BME280;49961;43.970;22.868;2022-07-29T01:59:37;101412.94;;;22.49;100.00
63808;BME280;49961;43.970;22.868;2022-07-29T02:00:38;101483.16;;;23.01;100.00
63808;BME280;49961;43.970;22.868;2022-07-29T02:01:40;101501.56;;;23.17;100.00
63808;BME280;49961;43.970;22.868;2022-07-29T02:02:43;101501.56;;;23.17;100.00
63808;BME280;49961;43.970;22.868;2022-07-29T02:03:47;101375.50;;;22.34;100.00
63808;BME280;49961;43.970;22.868;2022-07-29T02:04:49;101490.47;;;23.13;100.00
63808;BME280;49961;43.970;22.868;2022-07-29T02:05:51;101496.91;;;23.14;100.00
63808;BME280;49961;43.970;22.868;2022-07-29T02:06:55;101499.53;;;23.17;100.00
63808;BME280;49961;43.970;22.868;2022-07-29T02:07:59;101485.84;;;23.10;100.00
63808;BME280;49961;43.970;22.868;2022-07-29T02:09:02;101492.63;;;23.18;100.00
63808;BME280;49961;43.970;22.868;2022-07-29T02:10:04;101479.38;;;23.10;100.00
63808;BME280;49961;43.970;22.868;2022-07-29T02:11:07;101384.75;;;22.54;100.00
63808;BME280;49961;43.970;22.868;2022-07-29T02:12:09;101485.38;;;23.17;100.00
63808;BME280;49961;43.970;22.868;2022-07-29T02:13:12;101488.22;;;23.17;100.00
63808;BME280;49961;43.970;22.868;2022-07-29T02:14:14;101421.66;;;22.71;100.00
63808;BME280;49961;43.970;22.868;2022-07-29T02:15:16;101487.38;;;23.11;100.00
63808;BME280;49961;43.970;22.868;2022-07-29T02:16:18;101485.53;;;23.08;100.00
63808;BME280;49961;43.970;22.868;2022-07-29T02:17:25;101498.94;;;23.13;100.00
63808;BME280;49961;43.970;22.868;2022-07-29T02:18:27;101437.13;;;22.75;100.00
63808;BME280;49961;43.970;22.868;2022-07-29T02:19:32;101430.66;;;22.69;100.00
63808;BME280;49961;43.970;22.868;2022-07-29T02:20:33;101479.53;;;23.01;100.00
63808;BME280;49961;43.970;22.868;2022-07-29T02:21:35;101497.19;;;23.16;100.00
63808;BME280;49961;43.970;22.868;2022-07-29T02:22:38;101502.06;;;23.15;100.00
63808;BME280;49961;43.970;22.868;2022-07-29T02:23:39;101437.63;;;22.74;100.00
63808;BME280;49961;43.970;22.868;2022-07-29T02:24:40;101470.31;;;23.00;100.00
63808;BME280;49961;43.970;22.868;2022-07-29T02:25:42;101494.56;;;23.12;100.00
63808;BME280;49961;43.970;22.868;2022-07-29T02:26:44;101502.06;;;23.15;100.00
63808;BME280;49961;43.970;22.868;2022-07-29T02:27:45;101494.31;;;23.10;100.00
63808;BME280;49961;43.970;22.868;2022-07-29T02:28:49;101489.06;;;23.03;100.00
63808;BME280;49961;43.970;22.868;2022-07-29T02:29:51;101492.34;;;22.96;100.00
63808;BME280;49961;43.970;22.868;2022-07-29T02:30:53;101478.38;;;22.87;100.00
63808;BME280;49961;43.970;22.868;2022-07-29T02:31:56;101494.91;;;22.94;100.00
63808;BME280;49961;43.970;22.868;2022-07-29T02:32:57;101500.56;;;22.94;100.00
63808;BME280;49961;43.970;22.868;2022-07-29T02:34:01;101415.50;;;22.47;100.00
63808;BME280;49961;43.970;22.868;2022-07-29T02:35:04;101492.09;;;22.94;100.00
63808;BME280;49961;43.970;22.868;2022-07-29T02:36:05;101409.06;;;22.46;100.00
63808;BME280;49961;43.970;22.868;2022-07-29T02:37:09;101413.72;;;22.49;100.00
63808;BME280;49961;43.970;22.868;2022-07-29T02:38:13;101448.94;;;22.74;100.00
63808;BME280;49961;43.970;22.868;2022-07-29T02:39:33;101501.75;;;23.08;100.00
63808;BME280;49961;43.970;22.868;2022-07-29T02:40:38;101500.94;;;23.07;100.00
63808;BME280;49961;43.970;22.868;2022-07-29T02:41:52;101450.63;;;22.66;100.00
63808;BME280;49961;43.970;22.868;2022-07-29T02:42:55;101492.91;;;23.00;100.00
63808;BME280;49961;43.970;22.868;2022-07-29T02:43:58;101506.88;;;23.09;100.00
63808;BME280;49961;43.970;22.868;2022-07-29T02:45:02;101414.47;;;22.50;100.00
63808;BME280;49961;43.970;22.868;2022-07-29T02:46:04;101481.31;;;22.98;100.00
63808;BME280;49961;43.970;22.868;2022-07-29T02:48:28;101423.09;;;22.61;100.00
63808;BME280;49961;43.970;22.868;2022-07-29T02:49:39;101500.50;;;23.14;100.00
63808;BME280;49961;43.970;22.868;2022-07-29T02:50:45;101506.44;;;23.16;100.00
63808;BME280;49961;43.970;22.868;2022-07-29T02:51:58;101509.09;;;23.20;100.00
63808;BME280;49961;43.970;22.868;2022-07-29T02:53:15;101494.50;;;23.07;100.00
63808;BME280;49961;43.970;22.868;2022-07-29T02:56:06;101508.38;;;23.25;100.00
63808;BME280;49961;43.970;22.868;2022-07-29T02:57:20;101421.88;;;22.67;100.00
63808;BME280;49961;43.970;22.868;2022-07-29T02:58:25;101476.53;;;23.04;100.00
63808;BME280;49961;43.970;22.868;2022-07-29T02:59:30;101516.03;;;23.19;100.00
63808;BME280;49961;43.970;22.868;2022-07-29T03:00:37;101515.00;;;23.22;100.00
63808;BME280;49961;43.970;22.868;2022-07-29T03:01:40;101512.19;;;23.22;100.00
63808;BME280;49961;43.970;22.868;2022-07-29T03:02:45;101510.38;;;23.19;100.00
63808;BME280;49961;43.970;22.868;2022-07-29T03:03:52;101518.84;;;23.19;100.00
63808;BME280;49961;43.970;22.868;2022-07-29T03:04:55;101519.13;;;23.21;100.00
63808;BME280;49961;43.970;22.868;2022-07-29T03:05:59;101448.72;;;22.77;100.00
63808;BME280;49961;43.970;22.868;2022-07-29T03:07:01;101484.13;;;22.98;100.00
63808;BME280;49961;43.970;22.868;2022-07-29T03:08:09;101523.28;;;23.25;100.00
63808;BME280;49961;43.970;22.868;2022-07-29T03:09:12;101425.94;;;22.61;100.00
63808;BME280;49961;43.970;22.868;2022-07-29T03:10:13;101525.59;;;23.27;100.00
63808;BME280;49961;43.970;22.868;2022-07-29T03:11:14;101510.13;;;23.22;100.00
63808;BME280;49961;43.970;22.868;2022-07-29T03:12:15;101492.19;;;23.05;100.00
63808;BME280;49961;43.970;22.868;2022-07-29T03:13:16;101524.28;;;23.22;100.00
63808;BME280;49961;43.970;22.868;2022-07-29T03:14:18;101517.31;;;23.18;100.00
63808;BME280;49961;43.970;22.868;2022-07-29T03:15:20;101523.72;;;23.18;100.00
63808;BME280;49961;43.970;22.868;2022-07-29T03:16:21;101524.50;;;23.19;100.00
63808;BME280;49961;43.970;22.868;2022-07-29T03:17:24;101436.66;;;22.57;100.00
63808;BME280;49961;43.970;22.868;2022-07-29T03:18:25;101523.72;;;23.18;100.00
63808;BME280;49961;43.970;22.868;2022-07-29T03:19:26;101533.00;;;23.19;100.00
63808;BME280;49961;43.970;22.868;2022-07-29T03:20:27;101511.69;;;23.03;100.00
63808;BME280;49961;43.970;22.868;2022-07-29T03:21:27;101431.72;;;22.52;100.00
63808;BME280;49961;43.970;22.868;2022-07-29T03:22:28;101526.47;;;23.13;100.00
63808;BME280;49961;43.970;22.868;2022-07-29T03:23:29;101428.81;;;22.46;100.00
63808;BME280;49961;43.970;22.868;2022-07-29T03:24:32;101519.75;;;23.10;100.00
63808;BME280;49961;43.970;22.868;2022-07-29T03:25:33;101522.03;;;23.06;100.00
63808;BME280;49961;43.970;22.868;2022-07-29T03:26:34;101523.34;;;23.11;100.00
63808;BME280;49961;43.970;22.868;2022-07-29T03:27:34;101524.34;;;23.08;100.00
63808;BME280;49961;43.970;22.868;2022-07-29T03:28:35;101439.00;;;22.58;100.00
63808;BME280;49961;43.970;22.868;2022-07-29T03:29:35;101496.94;;;22.94;100.00
63808;BME280;49961;43.970;22.868;2022-07-29T03:30:36;101522.25;;;23.03;100.00
63808;BME280;49961;43.970;22.868;2022-07-29T03:31:36;101517.34;;;23.03;100.00
63808;BME280;49961;43.970;22.868;2022-07-29T03:32:37;101511.69;;;23.03;100.00
63808;BME280;49961;43.970;22.868;2022-07-29T03:33:38;101510.94;;;23.03;100.00
63808;BME280;49961;43.970;22.868;2022-07-29T03:34:38;101515.56;;;23.06;100.00
63808;BME280;49961;43.970;22.868;2022-07-29T03:35:39;101512.00;;;23.05;100.00
63808;BME280;49961;43.970;22.868;2022-07-29T03:36:40;101514.81;;;23.05;100.00
63808;BME280;49961;43.970;22.868;2022-07-29T03:37:40;101515.31;;;23.04;100.00
63808;BME280;49961;43.970;22.868;2022-07-29T03:38:42;101508.88;;;23.03;100.00
63808;BME280;49961;43.970;22.868;2022-07-29T03:39:45;101501.41;;;23.00;100.00
63808;BME280;49961;43.970;22.868;2022-07-29T03:41:02;101515.88;;;23.08;100.00
63808;BME280;49961;43.970;22.868;2022-07-29T03:42:04;101516.94;;;23.10;100.00
63808;BME280;49961;43.970;22.868;2022-07-29T03:43:06;101510.75;;;23.12;100.00
63808;BME280;49961;43.970;22.868;2022-07-29T03:44:08;101509.50;;;23.13;100.00
63808;BME280;49961;43.970;22.868;2022-07-29T03:45:13;101324.91;;;21.90;100.00
63808;BME280;49961;43.970;22.868;2022-07-29T03:46:16;101515.44;;;23.15;100.00
63808;BME280;49961;43.970;22.868;2022-07-29T03:47:20;101513.03;;;23.08;100.00
63808;BME280;49961;43.970;22.868;2022-07-29T03:48:23;101508.38;;;23.05;100.00
63808;BME280;49961;43.970;22.868;2022-07-29T03:49:26;101509.16;;;23.05;100.00
63808;BME280;49961;43.970;22.868;2022-07-29T03:50:30;101511.47;;;23.07;100.00
63808;BME280;49961;43.970;22.868;2022-07-29T03:51:32;101518.69;;;23.08;100.00
63808;BME280;49961;43.970;22.868;2022-07-29T03:52:33;101504.97;;;23.01;100.00
63808;BME280;49961;43.970;22.868;2022-07-29T03:53:34;101513.28;;;23.04;100.00
63808;BME280;49961;43.970;22.868;2022-07-29T03:54:36;101510.72;;;23.06;100.00
63808;BME280;49961;43.970;22.868;2022-07-29T03:55:41;101503.44;;;23.00;100.00
63808;BME280;49961;43.970;22.868;2022-07-29T03:56:43;101474.38;;;22.74;100.00
63808;BME280;49961;43.970;22.868;2022-07-29T03:57:49;101452.81;;;22.56;100.00
63808;BME280;49961;43.970;22.868;2022-07-29T03:58:51;101499.22;;;22.90;100.00
63808;BME280;49961;43.970;22.868;2022-07-29T03:59:52;101520.41;;;23.00;100.00
63808;BME280;49961;43.970;22.868;2022-07-29T04:00:54;101421.31;;;22.43;100.00
63808;BME280;49961;43.970;22.868;2022-07-29T04:01:55;101435.84;;;22.51;100.00
63808;BME280;49961;43.970;22.868;2022-07-29T04:02:57;101449.94;;;22.51;100.00
63808;BME280;49961;43.970;22.868;2022-07-29T04:03:58;101487.84;;;22.84;100.00
63808;BME280;49961;43.970;22.868;2022-07-29T04:04:59;101469.19;;;22.72;100.00
63808;BME280;49961;43.970;22.868;2022-07-29T04:06:04;101507.09;;;23.06;100.00
63808;BME280;49961;43.970;22.868;2022-07-29T04:07:11;101445.19;;;22.62;100.00
63808;BME280;49961;43.970;22.868;2022-07-29T04:08:12;101522.59;;;23.10;100.00
63808;BME280;49961;43.970;22.868;2022-07-29T04:09:12;101520.81;;;23.13;100.00
63808;BME280;49961;43.970;22.868;2022-07-29T04:10:14;101523.06;;;23.09;100.00
63808;BME280;49961;43.970;22.868;2022-07-29T04:11:15;101473.66;;;22.79;100.00
63808;BME280;49961;43.970;22.868;2022-07-29T04:12:16;101514.09;;;23.10;100.00
63808;BME280;49961;43.970;22.868;2022-07-29T04:13:16;101520.13;;;23.18;100.00
63808;BME280;49961;43.970;22.868;2022-07-29T04:14:17;101462.91;;;22.83;100.00
63808;BME280;49961;43.970;22.868;2022-07-29T04:15:17;101514.81;;;23.25;100.00
63808;BME280;49961;43.970;22.868;2022-07-29T04:16:18;101527.19;;;23.28;100.00
63808;BME280;49961;43.970;22.868;2022-07-29T04:17:18;101457.31;;;22.88;100.00
63808;BME280;49961;43.970;22.868;2022-07-29T04:18:19;101474.94;;;23.03;100.00
63808;BME280;49961;43.970;22.868;2022-07-29T04:19:19;101509.19;;;23.31;100.00
63808;BME280;49961;43.970;22.868;2022-07-29T04:20:20;101469.63;;;23.11;100.00
63808;BME280;49961;43.970;22.868;2022-07-29T04:21:20;101523.28;;;23.51;100.00
63808;BME280;49961;43.970;22.868;2022-07-29T04:22:21;101526.06;;;23.45;100.00
63808;BME280;49961;43.970;22.868;2022-07-29T04:23:21;101462.16;;;23.08;100.00
63808;BME280;49961;43.970;22.868;2022-07-29T04:24:22;101415.34;;;22.81;100.00
63808;BME280;49961;43.970;22.868;2022-07-29T04:25:22;101507.00;;;23.40;100.00
63808;BME280;49961;43.970;22.868;2022-07-29T04:26:23;101496.94;;;23.39;100.00
63808;BME280;49961;43.970;22.868;2022-07-29T04:27:23;101518.56;;;23.42;100.00
63808;BME280;49961;43.970;22.868;2022-07-29T04:28:24;101517.19;;;23.32;100.00
63808;BME280;49961;43.970;22.868;2022-07-29T04:29:26;101526.28;;;23.42;100.00
63808;BME280;49961;43.970;22.868;2022-07-29T04:30:27;101519.91;;;23.47;100.00
63808;BME280;49961;43.970;22.868;2022-07-29T04:31:28;101523.28;;;23.51;100.00
63808;BME280;49961;43.970;22.868;2022-07-29T04:32:28;101520.19;;;23.49;100.00
63808;BME280;49961;43.970;22.868;2022-07-29T04:33:29;101525.72;;;23.63;100.00
63808;BME280;49961;43.970;22.868;2022-07-29T04:34:29;101534.78;;;23.73;100.00
63808;BME280;49961;43.970;22.868;2022-07-29T04:35:30;101546.09;;;23.73;100.00
63808;BME280;49961;43.970;22.868;2022-07-29T04:36:31;101541.31;;;23.79;100.00
63808;BME280;49961;43.970;22.868;2022-07-29T04:37:32;101517.00;;;23.67;100.00
63808;BME280;49961;43.970;22.868;2022-07-29T04:38:32;101541.09;;;23.88;100.00
63808;BME280;49961;43.970;22.868;2022-07-29T04:39:33;101538.25;;;23.88;100.00
63808;BME280;49961;43.970;22.868;2022-07-29T04:40:33;101549.13;;;23.89;100.00
63808;BME280;49961;43.970;22.868;2022-07-29T04:41:34;101545.69;;;23.80;100.00
63808;BME280;49961;43.970;22.868;2022-07-29T04:42:34;101538.97;;;23.77;100.00
63808;BME280;49961;43.970;22.868;2022-07-29T04:43:35;101511.97;;;23.51;100.00
63808;BME280;49961;43.970;22.868;2022-07-29T04:44:36;101528.41;;;23.78;100.00
63808;BME280;49961;43.970;22.868;2022-07-29T04:45:36;101534.69;;;23.87;100.00
63808;BME280;49961;43.970;22.868;2022-07-29T04:46:37;101539.06;;;23.88;100.00
63808;BME280;49961;43.970;22.868;2022-07-29T04:47:37;101546.00;;;23.87;100.00
63808;BME280;49961;43.970;22.868;2022-07-29T04:48:38;101455.69;;;23.27;100.00
63808;BME280;49961;43.970;22.868;2022-07-29T04:49:38;101428.81;;;23.17;100.00
63808;BME280;49961;43.970;22.868;2022-07-29T04:50:40;101450.28;;;23.29;100.00
63808;BME280;49961;43.970;22.868;2022-07-29T04:51:41;101550.72;;;23.96;100.00
63808;BME280;49961;43.970;22.868;2022-07-29T04:52:41;101476.22;;;23.53;100.00
63808;BME280;49961;43.970;22.868;2022-07-29T04:53:42;101555.09;;;23.97;100.00
63808;BME280;49961;43.970;22.868;2022-07-29T04:54:42;101547.16;;;24.01;100.00
63808;BME280;49961;43.970;22.868;2022-07-29T04:55:43;101540.84;;;23.86;100.00
63808;BME280;49961;43.970;22.868;2022-07-29T04:56:44;101477.75;;;23.49;100.00
63808;BME280;49961;43.970;22.868;2022-07-29T04:57:46;101558.97;;;23.99;100.00
63808;BME280;49961;43.970;22.868;2022-07-29T04:58:47;101561.25;;;23.95;100.00
63808;BME280;49961;43.970;22.868;2022-07-29T04:59:47;101559.47;;;23.98;100.00
63808;BME280;49961;43.970;22.868;2022-07-29T05:00:49;101540.34;;;23.87;100.00
63808;BME280;49961;43.970;22.868;2022-07-29T05:01:50;101560.81;;;24.02;100.00
63808;BME280;49961;43.970;22.868;2022-07-29T05:02:50;101565.69;;;24.02;100.00
63808;BME280;49961;43.970;22.868;2022-07-29T05:03:51;101512.66;;;23.71;100.00
63808;BME280;49961;43.970;22.868;2022-07-29T05:04:51;101503.44;;;23.76;100.00
63808;BME280;49961;43.970;22.868;2022-07-29T05:05:52;101506.16;;;23.65;100.00
63808;BME280;49961;43.970;22.868;2022-07-29T05:06:52;101561.34;;;24.06;100.00
63808;BME280;49961;43.970;22.868;2022-07-29T05:07:53;101565.34;;;24.25;100.00
63808;BME280;49961;43.970;22.868;2022-07-29T05:08:53;101565.84;;;24.24;100.00
63808;BME280;49961;43.970;22.868;2022-07-29T05:09:54;101573.34;;;24.27;100.00
63808;BME280;49961;43.970;22.868;2022-07-29T05:10:57;101568.75;;;24.29;100.00
63808;BME280;49961;43.970;22.868;2022-07-29T05:11:57;101568.47;;;24.27;100.00
63808;BME280;49961;43.970;22.868;2022-07-29T05:12:58;101522.13;;;23.94;100.00
63808;BME280;49961;43.970;22.868;2022-07-29T05:13:58;101569.00;;;24.31;100.00
63808;BME280;49961;43.970;22.868;2022-07-29T05:14:59;101536.16;;;24.14;100.00
63808;BME280;49961;43.970;22.868;2022-07-29T05:15:59;101563.63;;;24.39;100.00
63808;BME280;49961;43.970;22.868;2022-07-29T05:17:00;101561.84;;;24.41;100.00
63808;BME280;49961;43.970;22.868;2022-07-29T05:18:01;101571.91;;;24.42;100.00
63808;BME280;49961;43.970;22.868;2022-07-29T05:19:01;101539.41;;;24.32;100.00
63808;BME280;49961;43.970;22.868;2022-07-29T05:20:03;101568.38;;;24.53;100.00
63808;BME280;49961;43.970;22.868;2022-07-29T05:21:03;101568.38;;;24.53;100.00
63808;BME280;49961;43.970;22.868;2022-07-29T05:22:04;101573.78;;;24.51;100.00
63808;BME280;49961;43.970;22.868;2022-07-29T05:23:04;101523.09;;;24.22;100.00
63808;BME280;49961;43.970;22.868;2022-07-29T05:24:05;101498.84;;;24.10;100.00
63808;BME280;49961;43.970;22.868;2022-07-29T05:25:06;101425.38;;;23.59;100.00
63808;BME280;49961;43.970;22.868;2022-07-29T05:26:06;101505.56;;;24.12;100.00
63808;BME280;49961;43.970;22.868;2022-07-29T05:27:08;101569.16;;;24.53;100.00
63808;BME280;49961;43.970;22.868;2022-07-29T05:28:08;101564.78;;;24.58;100.00
63808;BME280;49961;43.970;22.868;2022-07-29T05:29:09;101565.09;;;24.60;100.00
63808;BME280;49961;43.970;22.868;2022-07-29T05:30:10;101518.00;;;24.31;100.00
63808;BME280;49961;43.970;22.868;2022-07-29T05:31:10;101509.94;;;24.19;100.00